Pucheng, China
Current Conditions -  °F | °C
As of 6:00 AM on Thursday 23 Oct 2014 (Local Time) from ZSFZ Reporting Station
Clear Clear  
Wind Chill: 68°   Ceiling: Unl
Heat Index: 68°   Visibility: 6mi
Dew Point: 55°   Wind: 13mph
Humidity: 64%   Direction: 30°NNE
Pressure: 30.12"   Gusts: NA
Location:  27.92°N, 118.53°E
Report Text: ZSFZ 222200Z 03006MPS CAVOK 20/13 Q1020 NOSIG
Loading
Personal Weather Stations






























Interactive Weather Map
Tropical Storm Tracking
New forecast layout! Learn more

10-Day Weather Forecast

Advertisements
Track Severe Weather on mobile